Time;durP1;ratioP1;P1;durP2;ratioP2;P2;SDS_P1;SDS_P2;PMS_P1;PMS_P2;Temp;Humidity;BMP_temperature;BMP_pressure;BME280_temperature;BME280_humidity;BME280_pressure;Samples;Min_cycle;Max_cycle;Signal;HPM_P1;HPM_P2
2022/08/07 04:07:09;;;;;;;;;;;;;;;;;;;;;
2022/08/07 04:09:47;;;;;;;;;;;;;;;;;;;;;
2022/08/07 04:15:06;;;;;;;2.30;1.22;;;;;;;18.84;100.00;101545.30;1424768;100;21189;-77
2022/08/07 04:17:39;;;;;;;2.87;1.30;;;;;;;18.77;100.00;101539.34;1448999;89;21169;-77
2022/08/07 04:20:05;;;;;;;5.45;1.98;;;;;;;18.65;100.00;101536.97;1605257;88;21953;-77
2022/08/07 04:22:53;;;;;;;;;;;;;;;;;;;;;
2022/08/07 04:25:17;;;;;;;;;;;;;;;;;;;;;
2022/08/07 04:27:36;;;;;;;4.83;1.30;;;;;;;18.54;100.00;101526.28;1598868;88;21559;-77
2022/08/07 04:30:11;;;;;;;1.32;0.93;;;;;;;18.70;100.00;101523.42;1639966;85;21104;-77
2022/08/07 04:32:38;;;;;;;3.37;1.37;;;;;;;18.62;100.00;101524.00;1642974;86;21173;-77
2022/08/07 04:35:16;;;;;;;4.47;1.22;;;;;;;18.71;100.00;101511.27;1719909;80;21073;-76
2022/08/07 04:37:44;;;;;;;3.90;1.10;;;;;;;18.61;100.00;101511.87;1752721;81;21053;-76
2022/08/07 04:40:15;;;;;;;4.80;2.83;;;;;;;18.60;100.00;101508.41;1777589;78;21104;-76
2022/08/07 04:42:57;;;;;;;1.95;1.12;;;;;;;18.56;100.00;101505.45;1764376;79;21106;-77
2022/08/07 04:45:33;;;;;;;3.75;1.37;;;;;;;18.60;100.00;101503.63;1712074;81;21535;-76
2022/08/07 04:48:09;;;;;;;2.52;1.32;;;;;;;18.43;100.00;101500.45;1750570;80;21128;-76
2022/08/07 04:51:01;;;;;;;2.83;0.98;;;;;;;18.61;100.00;101498.87;1763550;81;21057;-76
2022/08/07 04:53:26;;;;;;;2.58;1.07;;;;;;;18.62;100.00;101500.11;1748766;80;21585;-76
2022/08/07 04:55:59;;;;;;;3.90;2.15;;;;;;;18.49;100.00;101495.59;1768013;80;21099;-76
2022/08/07 04:58:35;;;;;;;7.40;1.22;;;;;;;18.44;100.00;101485.25;1770372;80;21057;-76
2022/08/07 05:07:43;;;;;;;;;;;;;;;;;;;;;
2022/08/07 05:13:02;;;;;;;;;;;;;;;;;;;;;
2022/08/07 05:15:37;;;;;;;;;;;;;;;;;;;;;
2022/08/07 05:18:06;;;;;;;4.55;1.55;;;;;;;18.65;100.00;101478.41;1567217;89;21158;-77
2022/08/07 05:20:37;;;;;;;5.08;1.57;;;;;;;18.56;100.00;101477.69;1665944;80;21561;-76
2022/08/07 05:23:19;;;;;;;;;;;;;;;;;;;;;
2022/08/07 05:49:33;;;;;;;3.77;1.50;;;;;;;18.90;100.00;101493.55;1492590;95;21176;-76
2022/08/07 05:55:26;;;;;;;;;;;;;;;;;;;;;
2022/08/07 06:01:26;;;;;;;;;;;;;;;;;;;;;
2022/08/07 06:07:04;;;;;;;;;;;;;;;;;;;;;
2022/08/07 06:09:09;;;;;;;6.12;2.12;;;;;;;18.97;100.00;101478.23;1490751;92;21287;-76
2022/08/07 06:11:36;;;;;;;7.30;2.22;;;;;;;19.02;100.00;101480.30;1517196;91;21353;-76
2022/08/07 06:14:07;;;;;;;4.35;1.72;;;;;;;19.13;100.00;101486.61;1656398;85;21346;-77
2022/08/07 06:16:37;;;;;;;3.02;2.02;;;;;;;19.01;100.00;101486.39;1762052;80;21113;-77
2022/08/07 06:19:04;;;;;;;8.80;2.87;;;;;;;19.21;100.00;101484.70;1758627;79;21096;-76
2022/08/07 06:21:35;;;;;;;3.67;1.77;;;;;;;19.23;100.00;101488.58;1766373;80;21522;-77
2022/08/07 06:24:11;;;;;;;7.87;2.05;;;;;;;19.33;100.00;101495.33;1739216;80;21107;-77
2022/08/07 06:26:45;;;;;;;;;;;;;;;;;;;;;
2022/08/07 06:29:10;;;;;;;4.45;1.90;;;;;;;19.54;100.00;101503.57;1751369;81;21075;-77
2022/08/07 06:31:49;;;;;;;2.90;2.02;;;;;;;19.48;100.00;101502.38;1755609;80;21241;-77
2022/08/07 06:34:12;;;;;;;5.67;1.75;;;;;;;19.49;100.00;101503.25;1728749;80;21088;-77
2022/08/07 06:36:44;;;;;;;5.15;2.02;;;;;;;19.54;100.00;101510.09;1783036;79;21112;-77
2022/08/07 06:39:13;;;;;;;3.20;2.25;;;;;;;19.78;100.00;101522.16;1760098;80;21084;-76
2022/08/07 06:41:43;;;;;;;4.10;1.85;;;;;;;19.78;100.00;101522.16;1768136;80;21174;-76
2022/08/07 06:44:13;;;;;;;3.70;2.02;;;;;;;19.88;100.00;101521.95;1759320;80;21097;-76
2022/08/07 06:46:43;;;;;;;5.70;2.40;;;;;;;20.03;100.00;101528.14;1768590;80;21114;-76
2022/08/07 06:49:10;;;;;;;7.03;2.17;;;;;;;20.27;100.00;101532.83;1757559;80;21061;-76
2022/08/07 06:51:39;;;;;;;6.28;2.00;;;;;;;20.19;100.00;101536.48;1756138;80;21138;-76
2022/08/07 06:54:08;;;;;;;3.40;1.92;;;;;;;20.16;100.00;101539.16;1767974;79;21100;-77
2022/08/07 06:56:46;;;;;;;7.60;2.02;;;;;;;20.52;100.00;101547.41;1757201;79;21080;-77
2022/08/07 06:59:26;;;;;;;5.33;2.77;;;;;;;20.91;100.00;101537.75;1754445;80;21045;-76
2022/08/07 07:01:51;;;;;;;5.42;2.90;;;;;;;21.05;100.00;101559.14;1757328;80;21140;-76
2022/08/07 07:04:19;;;;;;;4.75;1.90;;;;;;;21.71;100.00;101572.96;1756376;81;21095;-76
2022/08/07 07:06:47;;;;;;;3.47;2.22;;;;;;;21.71;100.00;101572.96;1763215;80;21119;-76
2022/08/07 07:09:30;;;;;;;9.53;2.30;;;;;;;21.72;100.00;101589.92;1765433;80;21541;-76
2022/08/07 07:12:03;;;;;;;5.28;2.08;;;;;;;21.88;100.00;101577.72;1757560;80;21105;-77
2022/08/07 07:14:39;;;;;;;6.05;2.05;;;;;;;22.16;100.00;101601.24;1753640;80;21585;-76
2022/08/07 07:17:10;;;;;;;4.60;2.20;;;;;;;22.28;100.00;101612.23;1755203;80;21214;-76
2022/08/07 07:19:40;;;;;;;7.62;2.08;;;;;;;22.57;100.00;101622.27;1765267;81;21510;-76
2022/08/07 07:22:09;;;;;;;5.47;2.15;;;;;;;22.88;100.00;101633.00;1749281;80;21218;-76
2022/08/07 07:24:37;;;;;;;5.05;2.45;;;;;;;23.01;100.00;101640.43;1728719;82;21036;-76
2022/08/07 07:27:05;;;;;;;4.15;1.90;;;;;;;23.02;100.00;101650.03;1723597;81;21004;-77
2022/08/07 07:29:36;;;;;;;5.42;2.37;;;;;;;22.83;100.00;101657.64;1758405;80;21095;-76
2022/08/07 07:32:05;;;;;;;2.98;2.00;;;;;;;22.99;100.00;101644.89;1759117;80;21553;-76
2022/08/07 07:34:34;;;;;;;2.35;1.60;;;;;;;23.42;100.00;101674.00;1756556;81;21164;-77
2022/08/07 07:37:03;;;;;;;2.83;1.95;;;;;;;23.59;100.00;101670.77;1754991;80;21431;-77
2022/08/07 07:39:31;;;;;;;3.83;2.25;;;;;;;23.40;100.00;101675.36;1761777;80;21514;-77
2022/08/07 07:42:00;;;;;;;5.97;2.10;;;;;;;23.63;100.00;101683.30;1766689;81;21147;-76
2022/08/07 07:44:28;;;;;;;4.55;2.27;;;;;;;23.56;100.00;101694.05;1755210;80;21107;-75
2022/08/07 07:46:57;;;;;;;9.13;2.72;;;;;;;23.78;100.00;101691.09;1762159;80;21105;-75
2022/08/07 07:49:26;;;;;;;3.95;2.20;;;;;;;23.49;100.00;101689.92;1759385;80;21058;-75
2022/08/07 07:51:55;;;;;;;6.25;2.17;;;;;;;23.66;100.00;101689.31;1765482;80;21117;-76
2022/08/07 07:54:24;;;;;;;4.37;2.10;;;;;;;23.79;100.00;101693.66;1755656;81;21114;-76
2022/08/07 07:56:52;;;;;;;2.77;1.87;;;;;;;24.05;100.00;101702.31;1746797;80;21517;-76
2022/08/07 07:59:36;;;;;;;9.33;2.20;;;;;;;24.19;100.00;101713.62;1753472;80;21092;-77
2022/08/07 08:02:09;;;;;;;;;;;;;;;;;;;;;
2022/08/07 08:31:07;;;;;;;;;;;;;;;;;;;;;
2022/08/07 08:36:58;;;;;;;;;;;;;;;;;;;;;
2022/08/07 08:40:04;;;;;;;;;;;;;;;;;;;;;
2022/08/07 08:42:43;;;;;;;4.92;1.80;;;;;;;24.59;100.00;101754.55;1729530;79;21546;-77
2022/08/07 08:45:27;;;;;;;2.52;1.95;;;;;;;24.82;100.00;101766.38;1756906;78;21091;-77
2022/08/07 08:48:15;;;;;;;5.45;1.70;;;;;;;24.94;100.00;101779.48;1865442;76;21464;-76
2022/08/07 09:11:11;;;;;;;2.65;1.50;;;;;;;24.92;100.00;101753.27;1701334;81;21139;-75
2022/08/07 09:17:23;;;;;;;1.98;1.30;;;;;;;25.32;100.00;101744.63;1680390;83;21158;-76
2022/08/07 13:21:53;;;;;;;2.08;1.20;;;;;;;28.43;52.45;101700.02;1792593;79;21603;-75
2022/08/07 13:24:25;;;;;;;3.40;1.50;;;;;;;28.44;51.98;101684.08;1789546;79;21343;-75
2022/08/07 13:26:56;;;;;;;2.40;1.60;;;;;;;28.40;52.24;101652.62;1780519;79;21645;-75
2022/08/07 13:29:32;;;;;;;2.47;1.52;;;;;;;28.48;51.29;101644.23;1777791;79;21568;-76
2022/08/07 13:32:34;;;;;;;3.20;1.50;;;;;;;28.55;52.96;101644.27;1790001;78;21556;-75
2022/08/07 13:35:53;;;;;;;2.47;1.40;;;;;;;28.60;54.25;101640.91;1746294;81;21155;-75
2022/08/07 15:26:27;;;;;;;;;;;;;;;;;;;;;
2022/08/07 15:31:41;;;;;;;3.58;1.30;;;;;;;30.14;34.80;101543.20;1800411;78;21116;-75
